sensor_id;sensor_type;location;lat;lon;timestamp;pressure;altitude;pressure_sealevel;temperature;humidity
72465;BME280;60471;52.150;4.508;2022-10-16T00:01:27;100601.31;;;15.05;67.93
72465;BME280;60471;52.150;4.508;2022-10-16T00:03:56;100611.72;;;15.08;68.12
72465;BME280;60471;52.150;4.508;2022-10-16T00:06:26;100597.91;;;15.16;67.65
72465;BME280;60471;52.150;4.508;2022-10-16T00:08:53;100597.19;;;15.01;67.54
72465;BME280;60471;52.150;4.508;2022-10-16T00:11:22;100596.94;;;15.17;67.23
72465;BME280;60471;52.150;4.508;2022-10-16T00:13:52;100602.25;;;15.17;67.40
72465;BME280;60471;52.150;4.508;2022-10-16T00:16:22;100594.28;;;15.17;67.49
72465;BME280;60471;52.150;4.508;2022-10-16T00:18:48;100598.44;;;15.08;67.56
72465;BME280;60471;52.150;4.508;2022-10-16T00:21:17;100583.03;;;15.14;67.50
72465;BME280;60471;52.150;4.508;2022-10-16T00:23:46;100595.25;;;15.16;67.05
72465;BME280;60471;52.150;4.508;2022-10-16T00:26:17;100591.75;;;15.16;66.65
72465;BME280;60471;52.150;4.508;2022-10-16T00:28:48;100601.97;;;15.09;66.77
72465;BME280;60471;52.150;4.508;2022-10-16T00:31:16;100582.06;;;15.15;66.87
72465;BME280;60471;52.150;4.508;2022-10-16T00:33:43;100588.16;;;15.04;67.40
72465;BME280;60471;52.150;4.508;2022-10-16T00:36:12;100575.72;;;15.04;67.13
72465;BME280;60471;52.150;4.508;2022-10-16T00:38:40;100584.53;;;15.05;67.64
72465;BME280;60471;52.150;4.508;2022-10-16T00:41:09;100594.66;;;15.00;67.63
72465;BME280;60471;52.150;4.508;2022-10-16T00:46:22;100578.81;;;14.86;68.21
72465;BME280;60471;52.150;4.508;2022-10-16T00:49:07;100585.41;;;14.93;68.44
72465;BME280;60471;52.150;4.508;2022-10-16T00:51:41;100591.13;;;14.87;68.75
72465;BME280;60471;52.150;4.508;2022-10-16T00:54:15;100581.88;;;14.92;68.54
72465;BME280;60471;52.150;4.508;2022-10-16T00:56:44;100595.59;;;14.86;68.89
72465;BME280;60471;52.150;4.508;2022-10-16T00:59:36;100591.91;;;14.89;69.02
72465;BME280;60471;52.150;4.508;2022-10-16T01:02:07;100591.78;;;14.90;69.26
72465;BME280;60471;52.150;4.508;2022-10-16T01:04:38;100597.09;;;14.90;69.37
72465;BME280;60471;52.150;4.508;2022-10-16T01:10:26;100610.91;;;14.70;70.48
72465;BME280;60471;52.150;4.508;2022-10-16T01:12:58;100603.78;;;14.70;70.60
72465;BME280;60471;52.150;4.508;2022-10-16T01:15:47;100602.63;;;14.87;69.95
72465;BME280;60471;52.150;4.508;2022-10-16T01:18:37;100604.00;;;14.80;70.50
72465;BME280;60471;52.150;4.508;2022-10-16T01:21:13;100605.47;;;14.71;71.05
72465;BME280;60471;52.150;4.508;2022-10-16T01:29:56;100596.16;;;14.66;71.42
72465;BME280;60471;52.150;4.508;2022-10-16T01:32:59;100602.91;;;14.44;72.49
72465;BME280;60471;52.150;4.508;2022-10-16T01:35:41;100601.97;;;14.58;72.18
72465;BME280;60471;52.150;4.508;2022-10-16T01:38:29;100603.22;;;14.53;72.74
72465;BME280;60471;52.150;4.508;2022-10-16T01:41:13;100601.75;;;14.48;72.85
72465;BME280;60471;52.150;4.508;2022-10-16T01:44:06;100602.03;;;14.44;73.48
72465;BME280;60471;52.150;4.508;2022-10-16T01:46:39;100604.50;;;14.47;73.62
72465;BME280;60471;52.150;4.508;2022-10-16T01:49:09;100611.34;;;14.37;73.78
72465;BME280;60471;52.150;4.508;2022-10-16T01:51:38;100596.69;;;14.31;74.15
72465;BME280;60471;52.150;4.508;2022-10-16T01:54:07;100614.88;;;14.37;74.09
72465;BME280;60471;52.150;4.508;2022-10-16T01:56:34;100603.81;;;14.43;73.98
72465;BME280;60471;52.150;4.508;2022-10-16T01:59:16;100607.63;;;14.39;74.12
72465;BME280;60471;52.150;4.508;2022-10-16T02:01:48;100617.50;;;14.25;74.69
72465;BME280;60471;52.150;4.508;2022-10-16T02:04:32;100625.38;;;14.39;73.88
72465;BME280;60471;52.150;4.508;2022-10-16T02:07:02;100639.06;;;14.33;74.11
72465;BME280;60471;52.150;4.508;2022-10-16T02:09:30;100615.25;;;14.31;74.08
72465;BME280;60471;52.150;4.508;2022-10-16T02:12:03;100620.28;;;14.36;74.37
72465;BME280;60471;52.150;4.508;2022-10-16T02:14:39;100618.88;;;14.30;74.78
72465;BME280;60471;52.150;4.508;2022-10-16T02:17:17;100620.25;;;14.23;74.92
72465;BME280;60471;52.150;4.508;2022-10-16T02:19:44;100630.88;;;14.23;75.27
72465;BME280;60471;52.150;4.508;2022-10-16T02:22:32;100625.56;;;14.23;75.21
72465;BME280;60471;52.150;4.508;2022-10-16T02:25:12;100621.22;;;14.22;75.49
72465;BME280;60471;52.150;4.508;2022-10-16T02:28:03;100630.31;;;14.18;75.47
72465;BME280;60471;52.150;4.508;2022-10-16T02:33:11;100623.25;;;14.04;75.96
72465;BME280;60471;52.150;4.508;2022-10-16T02:35:41;100629.66;;;14.14;76.19
72465;BME280;60471;52.150;4.508;2022-10-16T02:38:11;100627.84;;;14.15;75.88
72465;BME280;60471;52.150;4.508;2022-10-16T02:40:39;100631.22;;;14.04;76.41
72465;BME280;60471;52.150;4.508;2022-10-16T02:43:06;100642.88;;;14.02;76.59
72465;BME280;60471;52.150;4.508;2022-10-16T02:45:32;100634.25;;;13.98;76.93
72465;BME280;60471;52.150;4.508;2022-10-16T02:47:59;100633.88;;;14.04;76.65
72465;BME280;60471;52.150;4.508;2022-10-16T02:50:25;100643.16;;;14.11;76.12
72465;BME280;60471;52.150;4.508;2022-10-16T02:52:51;100645.03;;;14.09;76.49
72465;BME280;60471;52.150;4.508;2022-10-16T02:55:17;100648.97;;;14.16;76.01
72465;BME280;60471;52.150;4.508;2022-10-16T02:57:44;100647.78;;;14.08;76.71
72465;BME280;60471;52.150;4.508;2022-10-16T03:00:13;100642.88;;;14.02;76.61
72465;BME280;60471;52.150;4.508;2022-10-16T03:02:41;100635.03;;;14.00;76.97
72465;BME280;60471;52.150;4.508;2022-10-16T03:05:08;100633.78;;;14.06;76.75
72465;BME280;60471;52.150;4.508;2022-10-16T03:07:35;100637.59;;;14.02;76.91
72465;BME280;60471;52.150;4.508;2022-10-16T03:10:02;100642.44;;;13.95;77.10
72465;BME280;60471;52.150;4.508;2022-10-16T03:12:28;100636.06;;;13.98;77.26
72465;BME280;60471;52.150;4.508;2022-10-16T03:14:55;100639.56;;;13.98;77.28
72465;BME280;60471;52.150;4.508;2022-10-16T03:17:23;100641.09;;;14.02;77.38
72465;BME280;60471;52.150;4.508;2022-10-16T03:19:50;100633.78;;;14.06;77.13
72465;BME280;60471;52.150;4.508;2022-10-16T03:22:17;100640.97;;;14.04;77.41
72465;BME280;60471;52.150;4.508;2022-10-16T03:24:43;100642.69;;;14.05;77.30
72465;BME280;60471;52.150;4.508;2022-10-16T03:27:09;100639.56;;;13.98;77.62
72465;BME280;60471;52.150;4.508;2022-10-16T03:29:35;100645.94;;;13.96;77.92
72465;BME280;60471;52.150;4.508;2022-10-16T03:32:02;100662.84;;;14.07;77.34
72465;BME280;60471;52.150;4.508;2022-10-16T03:34:28;100656.69;;;14.07;77.49
72465;BME280;60471;52.150;4.508;2022-10-16T03:36:54;100657.00;;;14.02;77.74
72465;BME280;60471;52.150;4.508;2022-10-16T03:39:20;100658.97;;;14.13;77.59
72465;BME280;60471;52.150;4.508;2022-10-16T03:41:47;100661.91;;;14.08;77.62
72465;BME280;60471;52.150;4.508;2022-10-16T03:44:13;100658.19;;;14.11;77.66
72465;BME280;60471;52.150;4.508;2022-10-16T03:46:39;100666.81;;;14.14;77.59
72465;BME280;60471;52.150;4.508;2022-10-16T03:49:05;100684.31;;;14.17;77.59
72465;BME280;60471;52.150;4.508;2022-10-16T03:51:32;100680.09;;;14.14;77.68
72465;BME280;60471;52.150;4.508;2022-10-16T03:53:58;100678.38;;;14.13;77.63
72465;BME280;60471;52.150;4.508;2022-10-16T03:56:24;100687.47;;;14.09;77.52
72465;BME280;60471;52.150;4.508;2022-10-16T03:58:50;100672.22;;;14.13;77.49
72465;BME280;60471;52.150;4.508;2022-10-16T04:01:17;100676.84;;;14.09;77.76
72465;BME280;60471;52.150;4.508;2022-10-16T04:03:43;100681.03;;;14.13;77.36
72465;BME280;60471;52.150;4.508;2022-10-16T04:06:09;100698.44;;;14.17;77.21
72465;BME280;60471;52.150;4.508;2022-10-16T04:08:35;100698.50;;;14.30;76.69
72465;BME280;60471;52.150;4.508;2022-10-16T04:11:03;100710.06;;;14.29;76.76
72465;BME280;60471;52.150;4.508;2022-10-16T04:13:29;100695.94;;;14.29;77.09
72465;BME280;60471;52.150;4.508;2022-10-16T04:15:55;100700.63;;;14.11;77.57
72465;BME280;60471;52.150;4.508;2022-10-16T04:18:21;100705.44;;;14.18;77.43
72465;BME280;60471;52.150;4.508;2022-10-16T04:20:47;100700.91;;;14.20;77.52
72465;BME280;60471;52.150;4.508;2022-10-16T04:23:14;100699.94;;;14.21;77.37
72465;BME280;60471;52.150;4.508;2022-10-16T04:25:40;100706.81;;;14.11;77.66
72465;BME280;60471;52.150;4.508;2022-10-16T04:28:06;100704.59;;;14.18;77.61
72465;BME280;60471;52.150;4.508;2022-10-16T04:30:32;100711.94;;;14.14;77.95
72465;BME280;60471;52.150;4.508;2022-10-16T04:32:59;100715.44;;;14.15;78.18
72465;BME280;60471;52.150;4.508;2022-10-16T04:35:25;100733.69;;;14.19;78.04
72465;BME280;60471;52.150;4.508;2022-10-16T04:37:51;100736.56;;;14.16;78.34
72465;BME280;60471;52.150;4.508;2022-10-16T04:40:18;100727.38;;;14.08;78.68
72465;BME280;60471;52.150;4.508;2022-10-16T04:42:44;100735.91;;;13.99;79.30
72465;BME280;60471;52.150;4.508;2022-10-16T04:45:10;100757.50;;;14.07;79.32
72465;BME280;60471;52.150;4.508;2022-10-16T04:47:39;100753.16;;;14.06;79.45
72465;BME280;60471;52.150;4.508;2022-10-16T04:50:06;100758.28;;;13.95;80.34
72465;BME280;60471;52.150;4.508;2022-10-16T04:52:33;100763.44;;;13.83;81.30
72465;BME280;60471;52.150;4.508;2022-10-16T04:54:59;100760.69;;;13.71;81.83
72465;BME280;60471;52.150;4.508;2022-10-16T04:57:29;100763.63;;;13.80;81.72
72465;BME280;60471;52.150;4.508;2022-10-16T04:59:55;100773.94;;;13.71;82.50
72465;BME280;60471;52.150;4.508;2022-10-16T05:02:21;100764.28;;;13.70;82.74
72465;BME280;60471;52.150;4.508;2022-10-16T05:04:48;100760.88;;;13.68;83.13
72465;BME280;60471;52.150;4.508;2022-10-16T05:07:14;100784.91;;;13.50;83.97
72465;BME280;60471;52.150;4.508;2022-10-16T05:09:40;100775.16;;;13.51;84.23
72465;BME280;60471;52.150;4.508;2022-10-16T05:12:06;100773.16;;;13.54;84.25
72465;BME280;60471;52.150;4.508;2022-10-16T05:14:32;100776.22;;;13.48;85.08
72465;BME280;60471;52.150;4.508;2022-10-16T05:16:59;100799.38;;;13.45;85.36
72465;BME280;60471;52.150;4.508;2022-10-16T05:19:26;100795.78;;;13.46;85.39
72465;BME280;60471;52.150;4.508;2022-10-16T05:21:52;100800.31;;;13.29;85.87
72465;BME280;60471;52.150;4.508;2022-10-16T05:24:18;100796.81;;;13.43;85.75
72465;BME280;60471;52.150;4.508;2022-10-16T05:26:44;100810.72;;;13.32;86.47
72465;BME280;60471;52.150;4.508;2022-10-16T05:29:11;100811.09;;;13.26;87.08
72465;BME280;60471;52.150;4.508;2022-10-16T05:31:37;100826.06;;;13.27;87.53
72465;BME280;60471;52.150;4.508;2022-10-16T05:34:03;100821.53;;;13.29;87.81
72465;BME280;60471;52.150;4.508;2022-10-16T05:36:29;100821.16;;;13.36;87.97
72465;BME280;60471;52.150;4.508;2022-10-16T05:38:56;100817.16;;;13.28;88.54
72465;BME280;60471;52.150;4.508;2022-10-16T05:41:22;100830.00;;;13.20;88.93
72465;BME280;60471;52.150;4.508;2022-10-16T05:43:51;100841.81;;;13.15;88.92
72465;BME280;60471;52.150;4.508;2022-10-16T05:46:18;100833.00;;;13.14;89.41
72465;BME280;60471;52.150;4.508;2022-10-16T05:48:45;100828.38;;;13.18;89.00
72465;BME280;60471;52.150;4.508;2022-10-16T05:51:12;100834.88;;;13.12;89.37
72465;BME280;60471;52.150;4.508;2022-10-16T05:53:40;100819.16;;;13.09;89.58
72465;BME280;60471;52.150;4.508;2022-10-16T05:56:09;100817.25;;;13.11;89.16
72465;BME280;60471;52.150;4.508;2022-10-16T05:58:37;100821.72;;;13.11;89.12
72465;BME280;60471;52.150;4.508;2022-10-16T06:01:10;100818.81;;;13.15;88.99
72465;BME280;60471;52.150;4.508;2022-10-16T06:03:38;100831.75;;;13.05;89.10
72465;BME280;60471;52.150;4.508;2022-10-16T06:06:19;100829.94;;;13.06;89.21
72465;BME280;60471;52.150;4.508;2022-10-16T06:08:48;100833.44;;;13.06;88.87
72465;BME280;60471;52.150;4.508;2022-10-16T06:11:20;100826.34;;;13.07;88.90
72465;BME280;60471;52.150;4.508;2022-10-16T06:13:49;100838.06;;;13.03;89.14
72465;BME280;60471;52.150;4.508;2022-10-16T06:16:20;100838.44;;;13.11;88.15
72465;BME280;60471;52.150;4.508;2022-10-16T06:18:46;100831.56;;;13.09;88.23
72465;BME280;60471;52.150;4.508;2022-10-16T06:21:17;100838.66;;;13.08;88.00
72465;BME280;60471;52.150;4.508;2022-10-16T06:23:50;100849.16;;;13.10;87.43
72465;BME280;60471;52.150;4.508;2022-10-16T06:26:19;100848.81;;;13.16;87.31
72465;BME280;60471;52.150;4.508;2022-10-16T06:28:47;100859.75;;;13.10;87.38
72465;BME280;60471;52.150;4.508;2022-10-16T06:31:14;100852.47;;;13.13;86.81
72465;BME280;60471;52.150;4.508;2022-10-16T06:33:41;100866.66;;;13.12;86.52
72465;BME280;60471;52.150;4.508;2022-10-16T06:36:10;100874.97;;;13.22;86.38
72465;BME280;60471;52.150;4.508;2022-10-16T06:38:38;100863.66;;;13.18;86.26
72465;BME280;60471;52.150;4.508;2022-10-16T06:41:06;100867.94;;;13.21;86.42
72465;BME280;60471;52.150;4.508;2022-10-16T06:43:35;100872.81;;;13.28;85.73
72465;BME280;60471;52.150;4.508;2022-10-16T06:46:02;100878.13;;;13.28;85.10
72465;BME280;60471;52.150;4.508;2022-10-16T06:48:29;100873.47;;;13.32;85.05
72465;BME280;60471;52.150;4.508;2022-10-16T06:51:03;100899.13;;;13.31;84.94
72465;BME280;60471;52.150;4.508;2022-10-16T06:53:33;100893.63;;;13.34;84.94
72465;BME280;60471;52.150;4.508;2022-10-16T06:56:16;100887.88;;;13.28;85.39
72465;BME280;60471;52.150;4.508;2022-10-16T06:58:45;100901.97;;;13.28;84.86
72465;BME280;60471;52.150;4.508;2022-10-16T07:01:13;100906.41;;;13.28;85.01
72465;BME280;60471;52.150;4.508;2022-10-16T07:03:42;100907.25;;;13.28;85.06
72465;BME280;60471;52.150;4.508;2022-10-16T07:06:11;100917.09;;;13.26;84.63
72465;BME280;60471;52.150;4.508;2022-10-16T07:08:41;100906.66;;;13.23;84.68
72465;BME280;60471;52.150;4.508;2022-10-16T07:11:11;100934.81;;;13.26;84.42
72465;BME280;60471;52.150;4.508;2022-10-16T07:13:42;100926.22;;;13.37;84.02
72465;BME280;60471;52.150;4.508;2022-10-16T07:16:14;100954.44;;;13.38;84.06
72465;BME280;60471;52.150;4.508;2022-10-16T07:18:42;100936.13;;;13.33;84.58
72465;BME280;60471;52.150;4.508;2022-10-16T07:21:13;100942.13;;;13.37;84.52
72465;BME280;60471;52.150;4.508;2022-10-16T07:23:51;100947.34;;;13.38;84.73
72465;BME280;60471;52.150;4.508;2022-10-16T07:26:18;100964.59;;;13.45;84.71
72465;BME280;60471;52.150;4.508;2022-10-16T07:28:44;100973.31;;;13.47;84.45
72465;BME280;60471;52.150;4.508;2022-10-16T07:31:15;100964.56;;;13.61;83.92
72465;BME280;60471;52.150;4.508;2022-10-16T07:33:43;100996.19;;;13.64;83.75
72465;BME280;60471;52.150;4.508;2022-10-16T07:36:12;100996.88;;;13.68;83.71
72465;BME280;60471;52.150;4.508;2022-10-16T07:38:38;100999.69;;;13.80;83.41
72465;BME280;60471;52.150;4.508;2022-10-16T07:41:06;101005.44;;;13.87;83.01
72465;BME280;60471;52.150;4.508;2022-10-16T07:43:34;101002.53;;;13.91;83.12
72465;BME280;60471;52.150;4.508;2022-10-16T07:46:01;101024.72;;;13.90;83.48
72465;BME280;60471;52.150;4.508;2022-10-16T07:48:29;101005.00;;;13.95;82.99
72465;BME280;60471;52.150;4.508;2022-10-16T07:51:01;101019.97;;;13.96;83.12
72465;BME280;60471;52.150;4.508;2022-10-16T07:53:30;101013.69;;;14.12;82.63
72465;BME280;60471;52.150;4.508;2022-10-16T07:56:02;101036.97;;;14.07;82.59
72465;BME280;60471;52.150;4.508;2022-10-16T07:58:32;101026.97;;;14.27;82.29
72465;BME280;60471;52.150;4.508;2022-10-16T08:01:04;101082.16;;;14.06;82.58
72465;BME280;60471;52.150;4.508;2022-10-16T08:03:32;101026.66;;;14.17;81.97
72465;BME280;60471;52.150;4.508;2022-10-16T08:05:59;101047.25;;;14.28;81.72
72465;BME280;60471;52.150;4.508;2022-10-16T08:08:27;101044.91;;;14.37;81.70
72465;BME280;60471;52.150;4.508;2022-10-16T08:10:53;101064.44;;;14.36;80.98
72465;BME280;60471;52.150;4.508;2022-10-16T08:13:20;101055.56;;;14.52;80.49
72465;BME280;60471;52.150;4.508;2022-10-16T08:15:47;101051.97;;;14.53;80.77
72465;BME280;60471;52.150;4.508;2022-10-16T08:18:14;101051.59;;;14.44;80.63
72465;BME280;60471;52.150;4.508;2022-10-16T08:20:42;101065.94;;;14.70;80.21
72465;BME280;60471;52.150;4.508;2022-10-16T08:23:10;101053.59;;;14.98;79.15
72465;BME280;60471;52.150;4.508;2022-10-16T08:25:38;101074.84;;;14.69;79.39
72465;BME280;60471;52.150;4.508;2022-10-16T08:28:06;101056.25;;;14.69;80.21
72465;BME280;60471;52.150;4.508;2022-10-16T08:30:34;101065.34;;;14.94;79.08
72465;BME280;60471;52.150;4.508;2022-10-16T08:33:01;101065.44;;;15.06;78.22
72465;BME280;60471;52.150;4.508;2022-10-16T08:35:27;101068.19;;;15.05;78.36
72465;BME280;60471;52.150;4.508;2022-10-16T08:37:54;101087.84;;;15.02;78.36
72465;BME280;60471;52.150;4.508;2022-10-16T08:40:28;101080.34;;;14.95;78.36
72465;BME280;60471;52.150;4.508;2022-10-16T08:48:43;101103.69;;;15.18;78.05
72465;BME280;60471;52.150;4.508;2022-10-16T08:51:33;101102.72;;;15.19;77.36
72465;BME280;60471;52.150;4.508;2022-10-16T08:54:15;101103.78;;;15.31;77.32
72465;BME280;60471;52.150;4.508;2022-10-16T08:56:49;101116.88;;;15.34;77.26
72465;BME280;60471;52.150;4.508;2022-10-16T08:59:16;101123.41;;;15.28;76.98
72465;BME280;60471;52.150;4.508;2022-10-16T09:01:47;101125.44;;;15.25;76.92
72465;BME280;60471;52.150;4.508;2022-10-16T09:10:42;101142.75;;;15.73;75.65
72465;BME280;60471;52.150;4.508;2022-10-16T09:13:24;101142.00;;;15.71;75.50
72465;BME280;60471;52.150;4.508;2022-10-16T09:18:55;101149.91;;;16.00;74.38
72465;BME280;60471;52.150;4.508;2022-10-16T09:21:30;101141.19;;;15.83;75.51
72465;BME280;60471;52.150;4.508;2022-10-16T09:24:19;101151.94;;;16.36;73.43
72465;BME280;60471;52.150;4.508;2022-10-16T09:26:47;101142.25;;;16.35;73.38
72465;BME280;60471;52.150;4.508;2022-10-16T09:29:15;101137.13;;;16.84;71.70
72465;BME280;60471;52.150;4.508;2022-10-16T09:31:46;101145.97;;;16.97;70.14
72465;BME280;60471;52.150;4.508;2022-10-16T09:34:27;101139.31;;;16.65;71.90
72465;BME280;60471;52.150;4.508;2022-10-16T09:36:59;101140.63;;;17.10;68.92
72465;BME280;60471;52.150;4.508;2022-10-16T09:39:27;101136.50;;;17.55;67.67
72465;BME280;60471;52.150;4.508;2022-10-16T09:41:54;101171.59;;;17.75;66.84
72465;BME280;60471;52.150;4.508;2022-10-16T09:44:28;101135.25;;;17.85;65.59
72465;BME280;60471;52.150;4.508;2022-10-16T09:47:05;101149.88;;;17.92;65.65
72465;BME280;60471;52.150;4.508;2022-10-16T09:49:39;101142.34;;;18.21;63.81
72465;BME280;60471;52.150;4.508;2022-10-16T09:52:12;101142.50;;;18.31;63.55
72465;BME280;60471;52.150;4.508;2022-10-16T09:54:56;101166.06;;;18.25;62.64
72465;BME280;60471;52.150;4.508;2022-10-16T09:57:24;101158.88;;;18.61;62.19
72465;BME280;60471;52.150;4.508;2022-10-16T09:59:53;101155.19;;;18.86;59.47
72465;BME280;60471;52.150;4.508;2022-10-16T10:02:29;101162.50;;;18.84;59.39
72465;BME280;60471;52.150;4.508;2022-10-16T10:04:59;101176.00;;;18.94;58.51
72465;BME280;60471;52.150;4.508;2022-10-16T10:07:28;101146.63;;;19.16;58.39
72465;BME280;60471;52.150;4.508;2022-10-16T10:10:03;101153.53;;;18.61;58.56
72465;BME280;60471;52.150;4.508;2022-10-16T10:12:32;101158.34;;;18.69;57.51
72465;BME280;60471;52.150;4.508;2022-10-16T10:15:11;101151.38;;;19.13;56.56
72465;BME280;60471;52.150;4.508;2022-10-16T10:17:54;101178.28;;;18.87;58.16
72465;BME280;60471;52.150;4.508;2022-10-16T10:20:32;101187.69;;;19.04;56.32
72465;BME280;60471;52.150;4.508;2022-10-16T10:23:01;101180.81;;;19.35;52.96
72465;BME280;60471;52.150;4.508;2022-10-16T10:25:53;101175.53;;;20.65;49.66
72465;BME280;60471;52.150;4.508;2022-10-16T10:47:25;101203.88;;;20.03;47.81
72465;BME280;60471;52.150;4.508;2022-10-16T11:01:55;101210.19;;;22.88;39.69
72465;BME280;60471;52.150;4.508;2022-10-16T11:07:36;101199.84;;;24.22;38.22
72465;BME280;60471;52.150;4.508;2022-10-16T11:10:13;101214.69;;;23.44;38.55
72465;BME280;60471;52.150;4.508;2022-10-16T11:12:51;101231.78;;;23.25;39.25
72465;BME280;60471;52.150;4.508;2022-10-16T11:15:28;101222.81;;;24.26;37.01
72465;BME280;60471;52.150;4.508;2022-10-16T11:18:06;101247.06;;;23.81;36.83
72465;BME280;60471;52.150;4.508;2022-10-16T11:20:41;101239.44;;;23.20;38.57
72465;BME280;60471;52.150;4.508;2022-10-16T11:23:21;101232.41;;;23.00;38.96
72465;BME280;60471;52.150;4.508;2022-10-16T11:25:59;101229.25;;;23.70;37.79
72465;BME280;60471;52.150;4.508;2022-10-16T11:28:40;101239.78;;;22.98;38.48
72465;BME280;60471;52.150;4.508;2022-10-16T11:31:24;101227.13;;;23.64;37.42
72465;BME280;60471;52.150;4.508;2022-10-16T11:36:38;101225.69;;;24.61;35.67
72465;BME280;60471;52.150;4.508;2022-10-16T11:39:32;101249.34;;;24.04;36.89
72465;BME280;60471;52.150;4.508;2022-10-16T11:50:50;101230.47;;;28.46;29.10
72465;BME280;60471;52.150;4.508;2022-10-16T11:53:56;101231.22;;;27.53;29.84
72465;BME280;60471;52.150;4.508;2022-10-16T11:56:30;101251.03;;;27.70;29.03
72465;BME280;60471;52.150;4.508;2022-10-16T11:59:06;101244.25;;;25.77;31.80
72465;BME280;60471;52.150;4.508;2022-10-16T12:02:26;101253.75;;;26.32;31.07
72465;BME280;60471;52.150;4.508;2022-10-16T12:05:16;101245.88;;;25.96;31.50
72465;BME280;60471;52.150;4.508;2022-10-16T12:08:15;101251.81;;;26.08;31.94
72465;BME280;60471;52.150;4.508;2022-10-16T12:10:44;101249.13;;;28.10;29.85
72465;BME280;60471;52.150;4.508;2022-10-16T12:16:06;101254.75;;;25.54;33.75
72465;BME280;60471;52.150;4.508;2022-10-16T12:21:39;101251.78;;;27.39;30.23
72465;BME280;60471;52.150;4.508;2022-10-16T12:24:21;101261.94;;;26.64;31.07
72465;BME280;60471;52.150;4.508;2022-10-16T12:26:55;101272.84;;;26.30;31.56
72465;BME280;60471;52.150;4.508;2022-10-16T12:29:40;101266.84;;;25.42;32.45
72465;BME280;60471;52.150;4.508;2022-10-16T12:32:37;101267.88;;;25.41;32.85
72465;BME280;60471;52.150;4.508;2022-10-16T12:35:17;101265.88;;;27.10;30.15
72465;BME280;60471;52.150;4.508;2022-10-16T12:37:47;101264.16;;;26.61;30.76
72465;BME280;60471;52.150;4.508;2022-10-16T12:40:27;101287.97;;;24.49;33.56
72465;BME280;60471;52.150;4.508;2022-10-16T12:42:57;101272.72;;;24.58;33.27
72465;BME280;60471;52.150;4.508;2022-10-16T12:45:31;101269.13;;;24.67;33.71
72465;BME280;60471;52.150;4.508;2022-10-16T12:48:02;101259.63;;;24.81;33.28
72465;BME280;60471;52.150;4.508;2022-10-16T12:50:34;101271.34;;;22.47;37.56
72465;BME280;60471;52.150;4.508;2022-10-16T12:53:15;101266.53;;;22.61;37.37
72465;BME280;60471;52.150;4.508;2022-10-16T12:58:51;101270.66;;;22.94;37.03
72465;BME280;60471;52.150;4.508;2022-10-16T13:07:56;101285.09;;;21.74;38.85
72465;BME280;60471;52.150;4.508;2022-10-16T13:19:42;101301.38;;;20.77;41.84
72465;BME280;60471;52.150;4.508;2022-10-16T13:25:45;101313.00;;;20.99;41.59
72465;BME280;60471;52.150;4.508;2022-10-16T13:28:32;101313.31;;;20.41;42.73
72465;BME280;60471;52.150;4.508;2022-10-16T13:31:01;101313.81;;;20.13;43.99
72465;BME280;60471;52.150;4.508;2022-10-16T13:33:33;101319.28;;;20.34;42.68
72465;BME280;60471;52.150;4.508;2022-10-16T13:36:03;101316.88;;;20.08;43.17
72465;BME280;60471;52.150;4.508;2022-10-16T13:38:33;101326.50;;;20.00;42.05
72465;BME280;60471;52.150;4.508;2022-10-16T13:41:04;101333.41;;;20.36;42.31
72465;BME280;60471;52.150;4.508;2022-10-16T13:43:39;101329.78;;;20.14;42.77
72465;BME280;60471;52.150;4.508;2022-10-16T13:46:16;101330.94;;;19.43;44.82
72465;BME280;60471;52.150;4.508;2022-10-16T13:49:03;101325.31;;;19.46;45.39
72465;BME280;60471;52.150;4.508;2022-10-16T13:51:31;101313.31;;;19.63;44.11
72465;BME280;60471;52.150;4.508;2022-10-16T13:53:59;101325.41;;;19.80;43.94
72465;BME280;60471;52.150;4.508;2022-10-16T13:56:28;101328.91;;;19.58;44.67
72465;BME280;60471;52.150;4.508;2022-10-16T13:59:01;101344.63;;;19.74;44.65
72465;BME280;60471;52.150;4.508;2022-10-16T14:01:49;101321.31;;;19.52;45.83
72465;BME280;60471;52.150;4.508;2022-10-16T14:04:19;101331.22;;;19.62;46.42
72465;BME280;60471;52.150;4.508;2022-10-16T14:06:49;101325.38;;;19.57;46.87
72465;BME280;60471;52.150;4.508;2022-10-16T14:09:23;101320.16;;;19.56;47.72
72465;BME280;60471;52.150;4.508;2022-10-16T14:11:53;101319.09;;;18.99;49.69
72465;BME280;60471;52.150;4.508;2022-10-16T14:14:22;101319.59;;;19.39;48.98
72465;BME280;60471;52.150;4.508;2022-10-16T14:16:50;101314.31;;;19.16;49.05
72465;BME280;60471;52.150;4.508;2022-10-16T14:19:25;101323.41;;;18.78;49.94
72465;BME280;60471;52.150;4.508;2022-10-16T14:21:56;101306.88;;;18.84;49.54
72465;BME280;60471;52.150;4.508;2022-10-16T14:24:33;101321.19;;;18.72;50.23
72465;BME280;60471;52.150;4.508;2022-10-16T14:27:01;101330.78;;;18.38;51.26
72465;BME280;60471;52.150;4.508;2022-10-16T14:29:29;101320.56;;;18.19;51.21
72465;BME280;60471;52.150;4.508;2022-10-16T14:32:02;101324.03;;;17.95;52.18
72465;BME280;60471;52.150;4.508;2022-10-16T14:34:33;101332.84;;;18.21;51.82
72465;BME280;60471;52.150;4.508;2022-10-16T14:39:51;101334.19;;;18.40;51.01
72465;BME280;60471;52.150;4.508;2022-10-16T14:42:20;101323.50;;;18.40;50.62
72465;BME280;60471;52.150;4.508;2022-10-16T14:44:51;101319.69;;;18.31;50.87
72465;BME280;60471;52.150;4.508;2022-10-16T14:47:21;101322.28;;;18.20;51.24
72465;BME280;60471;52.150;4.508;2022-10-16T14:49:53;101322.22;;;17.96;52.21
72465;BME280;60471;52.150;4.508;2022-10-16T14:52:21;101328.94;;;17.51;52.82
72465;BME280;60471;52.150;4.508;2022-10-16T14:54:48;101320.09;;;17.76;52.42
72465;BME280;60471;52.150;4.508;2022-10-16T14:57:18;101318.47;;;17.99;52.71
72465;BME280;60471;52.150;4.508;2022-10-16T14:59:47;101322.97;;;17.98;51.91